Time;durP1;ratioP1;P1;durP2;ratioP2;P2;SDS_P1;SDS_P2;PMS_P1;PMS_P2;Temp;Humidity;BMP_temperature;BMP_pressure;BME280_temperature;BME280_humidity;BME280_pressure;Samples;Min_cycle;Max_cycle;Signal;HPM_P1;HPM_P2
2020/12/09 00:01:54;;;;;;;34.20;22.77;;;;;;;-0.84;92.21;99472.42;1786151;79;25221;-70
2020/12/09 00:04:21;;;;;;;31.53;20.93;;;;;;;-0.84;92.10;99475.87;1779313;79;25719;-70
2020/12/09 00:06:49;;;;;;;33.90;22.30;;;;;;;-0.86;92.26;99465.19;1771322;79;25229;-71
2020/12/09 00:09:18;;;;;;;31.97;19.27;;;;;;;-0.87;92.31;99463.06;1771268;79;25706;-70
2020/12/09 00:11:45;;;;;;;32.27;20.97;;;;;;;-0.86;92.16;99464.73;1771311;79;25181;-71
2020/12/09 00:14:12;;;;;;;35.17;24.17;;;;;;;-0.87;92.39;99460.48;1771267;79;25169;-69
2020/12/09 00:16:39;;;;;;;30.40;20.73;;;;;;;-0.86;92.14;99463.44;1768155;79;25131;-70
2020/12/09 00:19:06;;;;;;;31.17;20.03;;;;;;;-0.87;92.45;99459.61;1764349;81;25307;-69
2020/12/09 00:21:33;;;;;;;33.53;20.80;;;;;;;-0.87;92.10;99464.35;1764344;81;25818;-70
2020/12/09 00:24:00;;;;;;;33.10;20.60;;;;;;;-0.85;92.02;99464.30;1765174;81;25291;-69
2020/12/09 00:26:26;;;;;;;29.03;19.93;;;;;;;-0.87;92.00;99461.77;1761090;81;25340;-69
2020/12/09 00:28:55;;;;;;;34.23;21.17;;;;;;;-0.87;92.06;99457.03;1760625;81;25226;-69
2020/12/09 00:31:30;;;;;;;26.67;17.50;;;;;;;-0.91;92.09;99450.30;1736751;81;25348;-69
2020/12/09 00:33:57;;;;;;;31.50;21.37;;;;;;;-0.91;92.06;99462.75;1760661;81;25300;-70
2020/12/09 00:36:24;;;;;;;29.63;20.10;;;;;;;-0.95;92.03;99472.34;1760695;81;25242;-69
2020/12/09 00:38:52;;;;;;;31.87;21.17;;;;;;;-0.96;92.09;99468.05;1760757;81;25194;-70
2020/12/09 00:41:21;;;;;;;32.23;21.33;;;;;;;-0.97;92.10;99468.14;1760632;81;25333;-70
2020/12/09 00:43:48;;;;;;;30.93;20.33;;;;;;;-0.98;92.01;99467.73;1760639;81;25166;-70
2020/12/09 00:46:21;;;;;;;29.27;19.07;;;;;;;-0.99;92.01;99468.19;1760677;81;25277;-70
2020/12/09 00:48:57;;;;;;;35.03;23.07;;;;;;;-0.97;91.96;99462.52;1818412;78;26851;-72
2020/12/09 00:51:25;;;;;;;33.17;23.37;;;;;;;-1.01;92.00;99460.91;1755878;80;25249;-71
2020/12/09 00:53:53;;;;;;;33.97;22.93;;;;;;;-1.01;92.00;99460.91;1784325;80;25221;-71
2020/12/09 00:56:22;;;;;;;29.63;19.73;;;;;;;-1.01;92.11;99473.82;1783961;80;25285;-70
2020/12/09 00:58:49;;;;;;;32.60;20.80;;;;;;;-1.03;92.17;99478.20;1784253;79;25344;-69
2020/12/09 01:01:16;;;;;;;35.37;21.63;;;;;;;-1.02;91.91;99482.91;1784273;79;25265;-69
2020/12/09 01:03:46;;;;;;;33.20;21.20;;;;;;;-1.04;91.93;99481.69;1783340;79;25277;-69
2020/12/09 01:06:13;;;;;;;31.83;20.43;;;;;;;-1.06;92.11;99472.30;1784242;79;25277;-69
2020/12/09 01:08:40;;;;;;;31.47;21.33;;;;;;;-1.07;91.90;99464.14;1784067;80;25672;-69
2020/12/09 01:11:06;;;;;;;35.37;19.63;;;;;;;-1.08;91.98;99472.34;1784086;80;26468;-69
2020/12/09 01:13:33;;;;;;;28.17;17.87;;;;;;;-1.12;92.17;99466.44;1784008;79;25320;-68
2020/12/09 01:16:00;;;;;;;31.30;20.33;;;;;;;-1.13;92.10;99467.77;1784250;80;25072;-69
2020/12/09 01:18:27;;;;;;;29.80;16.43;;;;;;;-1.13;92.10;99464.73;1784066;80;25218;-68
2020/12/09 01:20:53;;;;;;;33.67;20.47;;;;;;;-1.09;92.52;99465.48;1784059;80;25166;-69
2020/12/09 01:23:20;;;;;;;36.00;21.93;;;;;;;-1.08;92.69;99458.60;1784063;79;25221;-69
2020/12/09 01:25:47;;;;;;;36.23;22.07;;;;;;;-1.03;92.73;99470.45;1784276;79;25688;-69
2020/12/09 01:28:13;;;;;;;35.93;23.13;;;;;;;-1.01;93.12;99458.33;1784102;80;25308;-69
2020/12/09 01:30:40;;;;;;;33.47;19.93;;;;;;;-0.95;92.92;99468.47;1784065;79;25233;-69
2020/12/09 01:33:07;;;;;;;36.50;22.30;;;;;;;-0.88;93.46;99462.66;1784028;79;25656;-69
2020/12/09 01:35:33;;;;;;;39.93;24.17;;;;;;;-0.87;93.48;99468.22;1784120;79;25265;-70
2020/12/09 01:38:00;;;;;;;33.83;21.00;;;;;;;-0.83;93.58;99463.80;1784200;79;25222;-69
2020/12/09 01:40:27;;;;;;;39.93;24.00;;;;;;;-0.81;93.52;99455.09;1784276;80;25123;-69
2020/12/09 01:42:53;;;;;;;39.77;24.27;;;;;;;-0.77;93.77;99452.81;1758585;79;25281;-72
2020/12/09 01:45:20;;;;;;;40.17;24.93;;;;;;;-0.72;93.69;99460.84;1753059;80;25190;-69
2020/12/09 01:47:47;;;;;;;38.17;24.03;;;;;;;-0.66;93.53;99464.52;1753107;80;25059;-69
2020/12/09 01:50:14;;;;;;;34.57;20.70;;;;;;;-0.61;93.58;99455.70;1753612;80;25779;-69
2020/12/09 01:52:41;;;;;;;34.30;21.87;;;;;;;-0.54;93.56;99464.08;1753674;80;25304;-70
2020/12/09 01:55:08;;;;;;;35.73;21.57;;;;;;;-0.54;93.70;99465.38;1753552;80;25233;-69
2020/12/09 01:57:34;;;;;;;35.43;21.57;;;;;;;-0.52;93.78;99463.61;1753482;80;25628;-70
2020/12/09 02:00:01;;;;;;;30.93;19.77;;;;;;;-0.48;93.63;99467.75;1753144;80;25233;-69
2020/12/09 02:02:28;;;;;;;31.97;18.77;;;;;;;-0.44;93.81;99461.56;1753013;80;25361;-69
2020/12/09 02:04:55;;;;;;;31.30;19.70;;;;;;;-0.44;93.75;99455.11;1753198;80;25217;-70
2020/12/09 02:07:22;;;;;;;34.20;20.13;;;;;;;-0.43;94.04;99455.52;1719483;82;25398;-70
2020/12/09 02:10:00;;;;;;;32.50;20.37;;;;;;;-0.42;93.96;99453.34;1753084;80;25221;-69
2020/12/09 02:12:27;;;;;;;35.80;21.70;;;;;;;-0.41;94.08;99458.05;1753037;80;25192;-69
2020/12/09 02:14:53;;;;;;;36.57;21.63;;;;;;;-0.41;94.13;99452.42;1729648;81;25632;-69
2020/12/09 02:17:20;;;;;;;36.47;21.50;;;;;;;-0.38;94.12;99456.20;1753217;80;25189;-69
2020/12/09 02:19:47;;;;;;;35.30;20.77;;;;;;;-0.35;94.05;99456.55;1752989;80;25312;-69
2020/12/09 02:22:13;;;;;;;38.93;21.60;;;;;;;-0.33;94.18;99457.33;1752786;80;25762;-69
2020/12/09 02:24:40;;;;;;;36.53;21.00;;;;;;;-0.29;94.37;99455.02;1752974;80;25723;-70
2020/12/09 02:27:07;;;;;;;31.37;19.07;;;;;;;-0.28;94.32;99454.59;1753066;80;25114;-70
2020/12/09 02:29:33;;;;;;;33.27;19.40;;;;;;;-0.25;94.26;99455.75;1753153;80;25652;-70
2020/12/09 02:32:00;;;;;;;33.07;19.07;;;;;;;-0.26;94.29;99449.74;1752872;80;25327;-70
2020/12/09 02:34:27;;;;;;;38.93;22.90;;;;;;;-0.26;94.55;99457.95;1752991;80;25731;-69
2020/12/09 02:36:54;;;;;;;35.20;20.83;;;;;;;-0.25;94.57;99457.03;1752915;80;25209;-70
2020/12/09 02:39:34;;;;;;;29.90;17.07;;;;;;;-0.22;94.43;99443.58;1753080;80;25371;-70
2020/12/09 02:42:01;;;;;;;33.27;19.00;;;;;;;-0.21;94.48;99450.88;1753028;80;25293;-69
2020/12/09 02:44:27;;;;;;;35.23;20.60;;;;;;;-0.18;94.57;99449.48;1752965;80;25215;-69
2020/12/09 02:46:54;;;;;;;33.40;20.17;;;;;;;-0.17;94.55;99449.02;1752993;80;25320;-69
2020/12/09 02:49:22;;;;;;;33.33;19.80;;;;;;;-0.19;94.63;99443.91;1752504;80;25294;-69
2020/12/09 02:51:50;;;;;;;29.80;18.10;;;;;;;-0.14;94.60;99451.50;1752414;80;25323;-69
2020/12/09 02:54:17;;;;;;;34.83;21.13;;;;;;;-0.09;94.62;99449.12;1752465;80;25150;-72
2020/12/09 02:56:43;;;;;;;30.43;18.97;;;;;;;-0.08;94.44;99448.70;1752399;80;25288;-71
2020/12/09 02:59:10;;;;;;;32.23;19.47;;;;;;;-0.07;94.61;99441.31;1752366;80;25330;-71
2020/12/09 03:01:37;;;;;;;35.90;21.73;;;;;;;-0.09;94.49;99445.25;1752544;80;25261;-71
2020/12/09 03:04:04;;;;;;;29.73;18.57;;;;;;;-0.07;94.53;99442.61;1770488;79;25740;-68
2020/12/09 03:06:30;;;;;;;32.77;21.00;;;;;;;-0.09;94.78;99446.54;1783497;79;25218;-71
2020/12/09 03:08:57;;;;;;;25.43;16.33;;;;;;;-0.09;94.99;99453.00;1783517;80;25309;-71
2020/12/09 03:11:24;;;;;;;26.70;16.47;;;;;;;-0.10;94.91;99456.51;1783438;80;25226;-69
2020/12/09 03:13:50;;;;;;;29.07;18.60;;;;;;;-0.06;94.79;99447.72;1783364;79;25712;-69
2020/12/09 03:16:17;;;;;;;28.10;17.57;;;;;;;-0.06;94.76;99450.77;1783612;79;25284;-69
2020/12/09 03:18:44;;;;;;;25.70;16.17;;;;;;;-0.03;94.89;99451.50;1783623;80;25124;-69
2020/12/09 03:21:11;;;;;;;28.90;18.37;;;;;;;-0.08;95.07;99454.70;1783436;79;25699;-69
2020/12/09 03:23:37;;;;;;;27.60;18.10;;;;;;;-0.08;94.78;99450.83;1783312;79;25269;-69
2020/12/09 03:26:04;;;;;;;32.97;20.43;;;;;;;-0.05;95.00;99457.18;1783482;79;25309;-69
2020/12/09 03:28:33;;;;;;;32.00;19.13;;;;;;;-0.01;94.84;99459.20;1783499;80;25419;-69
2020/12/09 03:30:59;;;;;;;29.17;17.90;;;;;;;0.01;94.93;99455.27;1783016;80;25170;-69
2020/12/09 03:33:26;;;;;;;29.53;18.20;;;;;;;-0.01;95.12;99465.20;1783522;79;25281;-69
2020/12/09 03:35:53;;;;;;;25.00;15.70;;;;;;;0.04;94.91;99472.80;1767922;79;25308;-69
2020/12/09 03:38:19;;;;;;;24.43;15.53;;;;;;;0.07;94.87;99470.53;1752552;80;25345;-69
2020/12/09 03:40:46;;;;;;;33.97;22.00;;;;;;;0.07;95.07;99470.11;1752499;80;25380;-69
2020/12/09 03:43:13;;;;;;;29.50;18.60;;;;;;;0.11;94.93;99472.12;1752432;80;25771;-70
2020/12/09 03:45:39;;;;;;;33.00;20.10;;;;;;;0.13;94.97;99458.22;1752504;80;25337;-69
2020/12/09 03:48:06;;;;;;;29.17;18.77;;;;;;;0.13;94.72;99465.14;1752276;81;25782;-69
2020/12/09 03:50:33;;;;;;;28.53;17.03;;;;;;;0.13;94.93;99469.02;1752422;80;25327;-71
2020/12/09 03:53:00;;;;;;;30.50;18.17;;;;;;;0.15;94.91;99473.25;1752348;80;25691;-71
2020/12/09 03:55:26;;;;;;;29.50;18.03;;;;;;;0.16;94.84;99462.45;1752490;80;25208;-70
2020/12/09 03:57:53;;;;;;;32.27;18.87;;;;;;;0.16;94.93;99463.74;1752447;80;25342;-71
2020/12/09 04:00:20;;;;;;;26.93;17.40;;;;;;;0.14;94.97;99479.31;1752465;80;25432;-71
2020/12/09 04:02:46;;;;;;;28.50;17.77;;;;;;;0.12;95.12;99473.82;1752339;80;25335;-71
2020/12/09 04:05:13;;;;;;;26.43;16.67;;;;;;;0.15;94.91;99477.56;1752500;80;25300;-70
2020/12/09 04:07:40;;;;;;;35.30;20.77;;;;;;;0.17;94.89;99475.78;1752273;80;25912;-71
2020/12/09 04:10:07;;;;;;;26.60;15.77;;;;;;;0.20;94.85;99483.86;1752448;80;25250;-71
2020/12/09 04:12:34;;;;;;;28.40;17.20;;;;;;;0.23;94.80;99483.75;1752389;80;25300;-70
2020/12/09 04:15:02;;;;;;;25.73;15.83;;;;;;;0.24;94.86;99484.99;1752396;80;25224;-71
2020/12/09 04:17:28;;;;;;;24.80;15.53;;;;;;;0.26;94.79;99480.59;1752517;80;25070;-71
2020/12/09 04:19:55;;;;;;;32.47;19.50;;;;;;;0.28;94.80;99491.72;1752540;80;25380;-71
2020/12/09 04:22:22;;;;;;;29.30;18.37;;;;;;;0.29;94.68;99479.66;1752421;80;25181;-71
2020/12/09 04:24:49;;;;;;;24.23;15.70;;;;;;;0.30;94.80;99482.19;1752353;80;25407;-71
2020/12/09 04:27:15;;;;;;;20.33;13.37;;;;;;;0.32;94.88;99467.91;1752292;80;25264;-71
2020/12/09 04:29:42;;;;;;;25.80;15.93;;;;;;;0.33;94.74;99471.69;1752506;80;25393;-71
2020/12/09 04:32:09;;;;;;;28.10;18.17;;;;;;;0.29;94.78;99462.38;1752479;80;25321;-71
2020/12/09 04:34:36;;;;;;;26.13;16.83;;;;;;;0.29;94.69;99470.59;1752409;80;25316;-68
2020/12/09 04:37:02;;;;;;;26.00;17.23;;;;;;;0.34;94.72;99469.52;1752315;80;25624;-71
2020/12/09 04:39:29;;;;;;;27.67;17.00;;;;;;;0.35;94.57;99475.09;1752383;80;25292;-71
2020/12/09 04:41:56;;;;;;;23.33;14.33;;;;;;;0.37;94.67;99464.69;1752476;80;25209;-71
2020/12/09 04:44:24;;;;;;;29.33;17.40;;;;;;;0.36;94.68;99471.58;1752380;80;25138;-70
2020/12/09 04:46:52;;;;;;;26.23;16.07;;;;;;;0.38;94.63;99466.34;1752416;80;25178;-71
2020/12/09 04:49:23;;;;;;;28.70;18.70;;;;;;;0.35;94.54;99474.22;1752546;80;25170;-70
2020/12/09 04:52:17;;;;;;;31.07;19.07;;;;;;;0.36;94.61;99478.05;1752928;80;25296;-71
2020/12/09 04:54:45;;;;;;;28.70;18.77;;;;;;;0.38;94.45;99490.09;1752173;80;25181;-70
2020/12/09 04:57:15;;;;;;;29.77;17.80;;;;;;;0.38;94.44;99488.34;1752926;80;25128;-68
2020/12/09 04:59:42;;;;;;;28.57;18.40;;;;;;;0.40;94.48;99492.17;1752924;80;25178;-69
2020/12/09 05:02:11;;;;;;;23.67;16.17;;;;;;;0.40;94.44;99499.47;1752960;80;25087;-69
2020/12/09 05:04:38;;;;;;;30.07;19.50;;;;;;;0.43;94.34;99494.19;1752824;80;25233;-69
2020/12/09 05:07:10;;;;;;;31.80;19.37;;;;;;;0.43;94.33;99495.94;1752869;80;25566;-69
2020/12/09 05:09:45;;;;;;;25.10;17.30;;;;;;;0.44;94.36;99485.53;1752921;80;25593;-69
2020/12/09 05:12:17;;;;;;;25.60;15.33;;;;;;;0.44;94.35;99491.17;1753003;80;25163;-69
2020/12/09 05:14:48;;;;;;;25.27;15.87;;;;;;;0.39;94.56;99483.58;1752986;80;25739;-69
2020/12/09 05:17:17;;;;;;;25.97;17.07;;;;;;;0.44;94.36;99484.23;1752905;80;25067;-69
2020/12/09 05:19:46;;;;;;;28.73;18.90;;;;;;;0.46;94.32;99472.08;1753108;80;25149;-69
2020/12/09 05:22:18;;;;;;;27.10;17.77;;;;;;;0.45;94.25;99472.13;1752885;80;25126;-69
2020/12/09 05:24:45;;;;;;;30.27;19.10;;;;;;;0.44;94.27;99476.94;1753007;80;25304;-69
2020/12/09 05:27:13;;;;;;;28.33;18.03;;;;;;;0.44;94.37;99482.95;1752871;80;25146;-69
2020/12/09 05:29:47;;;;;;;27.93;18.40;;;;;;;0.46;94.24;99491.95;1752993;80;25074;-69
2020/12/09 05:32:14;;;;;;;27.63;17.73;;;;;;;0.46;94.19;99495.37;1752950;80;25154;-69
2020/12/09 05:34:41;;;;;;;26.73;17.33;;;;;;;0.47;94.19;99488.44;1753126;80;25755;-70
2020/12/09 05:37:10;;;;;;;28.10;19.93;;;;;;;0.49;94.09;99490.54;1752987;80;25142;-70
2020/12/09 05:39:52;;;;;;;36.03;21.87;;;;;;;0.47;94.07;99491.02;1753154;80;25224;-69
2020/12/09 05:42:21;;;;;;;28.37;17.33;;;;;;;0.48;93.99;99487.55;1753247;80;25122;-69
2020/12/09 05:44:48;;;;;;;36.80;24.63;;;;;;;0.47;94.02;99495.77;1753166;80;25134;-69
2020/12/09 05:47:16;;;;;;;46.20;29.33;;;;;;;0.48;93.98;99496.61;1753103;80;25062;-71
2020/12/09 05:49:44;;;;;;;50.83;36.07;;;;;;;0.48;93.90;99503.08;1752727;80;25327;-70
2020/12/09 05:52:18;;;;;;;44.83;27.40;;;;;;;0.50;93.90;99498.67;1752532;80;25312;-69
2020/12/09 05:54:48;;;;;;;44.83;25.83;;;;;;;0.49;93.84;99503.02;1727355;80;25125;-69
2020/12/09 05:57:17;;;;;;;49.87;28.77;;;;;;;0.51;93.89;99508.14;1752660;80;25240;-69
2020/12/09 05:59:47;;;;;;;45.67;26.10;;;;;;;0.52;93.78;99512.39;1752666;80;25518;-69
2020/12/09 06:02:22;;;;;;;45.40;27.23;;;;;;;0.52;93.83;99508.52;1751692;80;25319;-69
2020/12/09 06:05:00;;;;;;;30.17;19.43;;;;;;;0.48;93.84;99506.50;1752526;80;25221;-69
2020/12/09 06:07:29;;;;;;;49.07;29.43;;;;;;;0.45;93.87;99516.95;1752572;80;25620;-69
2020/12/09 06:10:16;;;;;;;40.87;24.00;;;;;;;0.45;93.99;99522.13;1752506;80;25747;-69
2020/12/09 06:13:00;;;;;;;35.40;20.33;;;;;;;0.50;93.94;99514.20;1798320;79;25182;-69
2020/12/09 06:15:32;;;;;;;37.60;22.20;;;;;;;0.52;93.95;99522.74;1801838;79;25747;-69
2020/12/09 06:18:11;;;;;;;32.13;20.17;;;;;;;0.51;93.87;99530.13;1802216;79;25269;-69
2020/12/09 06:20:40;;;;;;;30.27;20.43;;;;;;;0.54;93.78;99536.03;1802384;79;25070;-69
2020/12/09 06:23:15;;;;;;;32.33;21.33;;;;;;;0.53;93.87;99536.09;1802251;79;25070;-69
2020/12/09 06:25:43;;;;;;;25.47;16.53;;;;;;;0.54;93.72;99543.80;1802180;79;25695;-69
2020/12/09 06:28:20;;;;;;;23.77;15.27;;;;;;;0.54;93.86;99548.14;1802241;79;25072;-69
2020/12/09 06:30:49;;;;;;;25.60;17.33;;;;;;;0.58;93.76;99550.99;1802224;79;25221;-69
2020/12/09 06:33:35;;;;;;;20.40;14.33;;;;;;;0.59;93.74;99550.10;1802287;79;25632;-70
2020/12/09 06:36:23;;;;;;;23.63;14.83;;;;;;;0.58;93.78;99546.27;1766226;79;25349;-70
2020/12/09 06:39:14;;;;;;;26.40;17.00;;;;;;;0.58;93.76;99551.45;1752546;81;25072;-70
2020/12/09 06:41:56;;;;;;;27.10;17.20;;;;;;;0.59;93.71;99553.98;1703583;81;25179;-68
2020/12/09 06:44:33;;;;;;;26.37;16.87;;;;;;;0.69;93.70;99542.38;1849776;76;27487;-71
2020/12/09 06:47:00;;;;;;;27.83;17.60;;;;;;;0.66;93.59;99553.30;1788538;78;25697;-70
2020/12/09 06:49:37;;;;;;;24.83;16.50;;;;;;;0.66;93.62;99548.12;1819765;77;25263;-68
2020/12/09 06:52:12;;;;;;;22.73;15.40;;;;;;;0.65;93.55;99551.60;1788248;77;25258;-71
2020/12/09 06:54:44;;;;;;;26.63;17.80;;;;;;;0.67;93.51;99547.20;1784539;79;25693;-70
2020/12/09 06:57:22;;;;;;;28.53;18.07;;;;;;;0.68;93.45;99544.56;1757447;80;25620;-70
2020/12/09 06:59:51;;;;;;;24.30;15.50;;;;;;;0.70;93.45;99550.55;1787584;79;25060;-70
2020/12/09 07:02:25;;;;;;;26.60;17.03;;;;;;;0.69;93.43;99546.72;1787417;79;25284;-71
2020/12/09 07:05:00;;;;;;;23.40;15.43;;;;;;;0.74;93.46;99547.38;1761305;80;25746;-70
2020/12/09 07:07:40;;;;;;;24.87;15.97;;;;;;;0.73;93.45;99555.58;1759077;81;25284;-69
2020/12/09 07:10:22;;;;;;;22.67;14.87;;;;;;;0.78;93.43;99554.58;1739370;81;25291;-70
2020/12/09 07:13:10;;;;;;;22.87;15.80;;;;;;;0.78;93.34;99546.81;1759046;80;25058;-69
2020/12/09 07:15:45;;;;;;;26.17;17.50;;;;;;;0.82;93.34;99550.95;1758557;81;25232;-69
2020/12/09 07:18:11;;;;;;;24.33;17.03;;;;;;;0.83;93.34;99550.89;1739744;81;25655;-69
2020/12/09 07:20:38;;;;;;;24.37;15.67;;;;;;;0.85;93.23;99548.25;1759058;80;25228;-70
2020/12/09 07:23:05;;;;;;;19.73;13.93;;;;;;;0.87;93.22;99549.02;1758872;80;25718;-69
2020/12/09 07:25:33;;;;;;;23.80;15.03;;;;;;;0.90;93.16;99545.03;1759075;80;25403;-69
2020/12/09 07:28:00;;;;;;;23.27;15.07;;;;;;;0.89;93.13;99550.66;1759097;80;25351;-70
2020/12/09 07:30:27;;;;;;;23.90;14.73;;;;;;;0.90;93.17;99558.81;1759063;81;25299;-70
2020/12/09 07:35:30;;;;;;;20.77;14.53;;;;;;;1.00;93.11;99567.06;1800897;79;26975;-70
2020/12/09 07:38:00;;;;;;;22.20;15.60;;;;;;;1.00;93.06;99580.02;1765821;80;25264;-69
2020/12/09 07:40:30;;;;;;;23.53;15.67;;;;;;;1.00;92.99;99578.72;1765842;80;25284;-69
2020/12/09 07:43:05;;;;;;;26.90;18.20;;;;;;;1.05;92.94;99577.25;1765679;80;25340;-71
2020/12/09 07:45:38;;;;;;;21.47;14.13;;;;;;;1.07;92.93;99575.02;1765762;81;25264;-69
2020/12/09 07:48:14;;;;;;;23.87;17.13;;;;;;;1.15;92.83;99581.63;1765292;81;25331;-69
2020/12/09 07:50:50;;;;;;;22.43;14.83;;;;;;;1.14;92.65;99574.31;1765824;80;25782;-68
2020/12/09 07:53:17;;;;;;;29.97;19.67;;;;;;;1.16;92.54;99571.20;1765913;81;25288;-68
2020/12/09 07:55:43;;;;;;;37.10;23.07;;;;;;;1.18;92.50;99575.03;1765765;80;25363;-69
2020/12/09 07:58:11;;;;;;;30.97;20.07;;;;;;;1.19;92.40;99580.16;1765788;81;25333;-69
2020/12/09 08:00:41;;;;;;;25.20;16.77;;;;;;;1.19;92.28;99586.63;1765887;81;25252;-69
2020/12/09 08:03:23;;;;;;;23.53;15.73;;;;;;;1.16;92.25;99584.16;1765900;80;25308;-69
2020/12/09 08:05:52;;;;;;;25.83;15.67;;;;;;;1.18;92.32;99583.64;1765914;81;25232;-70
2020/12/09 08:08:22;;;;;;;26.17;16.63;;;;;;;1.21;92.24;99583.98;1765790;81;25231;-70
2020/12/09 08:10:51;;;;;;;28.07;18.80;;;;;;;1.19;91.95;99587.06;1765692;80;25683;-69
2020/12/09 08:13:23;;;;;;;29.47;20.33;;;;;;;1.25;92.08;99599.78;1765814;80;25212;-70
2020/12/09 08:18:44;;;;;;;31.17;20.10;;;;;;;1.35;91.81;99608.05;1817279;77;26857;-69
2020/12/09 08:21:11;;;;;;;24.73;16.07;;;;;;;1.36;91.95;99609.28;1749035;80;25248;-68
2020/12/09 08:23:46;;;;;;;22.83;15.37;;;;;;;1.35;91.57;99610.17;1788506;79;25249;-69
2020/12/09 08:26:33;;;;;;;26.97;18.23;;;;;;;1.33;91.50;99613.28;1788545;79;25083;-70
2020/12/09 08:29:02;;;;;;;21.53;15.00;;;;;;;1.35;91.60;99615.35;1788424;80;25331;-70
2020/12/09 08:31:29;;;;;;;26.23;18.17;;;;;;;1.36;91.44;99624.83;1788454;79;25279;-71
2020/12/09 08:33:56;;;;;;;23.90;16.17;;;;;;;1.37;91.45;99621.77;1788306;79;25737;-70
2020/12/09 08:36:24;;;;;;;28.30;18.40;;;;;;;1.34;91.08;99629.23;1788392;79;25576;-69
2020/12/09 08:38:59;;;;;;;24.77;16.70;;;;;;;1.38;91.30;99624.30;1788350;79;25196;-69
2020/12/09 08:41:36;;;;;;;23.73;16.23;;;;;;;1.48;90.96;99623.03;1849825;76;27413;-69
2020/12/09 08:44:06;;;;;;;19.07;13.13;;;;;;;1.43;90.99;99634.03;1819859;78;25295;-69
2020/12/09 08:46:33;;;;;;;24.37;15.20;;;;;;;1.43;90.74;99632.74;1788135;78;25708;-69
2020/12/09 08:49:01;;;;;;;24.73;17.83;;;;;;;1.44;90.88;99629.26;1819583;77;25737;-70
2020/12/09 08:51:30;;;;;;;22.03;13.73;;;;;;;1.53;90.76;99624.15;1796163;78;25273;-70
2020/12/09 08:53:59;;;;;;;21.43;14.73;;;;;;;1.52;90.33;99631.52;1787412;79;25743;-70
2020/12/09 08:56:29;;;;;;;19.50;13.53;;;;;;;1.53;90.42;99633.22;1787520;79;25219;-69
2020/12/09 08:58:57;;;;;;;25.60;15.90;;;;;;;1.51;90.05;99630.28;1787521;79;25198;-69
2020/12/09 09:01:24;;;;;;;27.90;18.60;;;;;;;1.52;90.31;99633.28;1787435;79;25066;-69
2020/12/09 09:06:28;;;;;;;27.43;17.93;;;;;;;1.61;90.24;99631.16;1849642;76;26876;-68
2020/12/09 09:08:54;;;;;;;22.83;15.27;;;;;;;1.56;90.33;99630.94;1819799;77;25193;-68
2020/12/09 09:11:25;;;;;;;23.10;16.03;;;;;;;1.49;90.02;99627.75;1819765;78;25258;-70
2020/12/09 09:13:53;;;;;;;21.53;14.00;;;;;;;1.51;90.14;99632.88;1819866;78;25345;-69
2020/12/09 09:16:21;;;;;;;26.73;16.53;;;;;;;1.50;90.13;99628.16;1819766;77;25318;-69
2020/12/09 09:18:48;;;;;;;21.17;13.97;;;;;;;1.52;90.22;99626.80;1819570;77;25399;-69
2020/12/09 09:21:15;;;;;;;19.90;13.40;;;;;;;1.60;90.34;99619.09;1819830;77;25287;-69
2020/12/09 09:23:42;;;;;;;22.80;15.90;;;;;;;1.61;89.91;99614.74;1788155;78;25662;-69
2020/12/09 09:26:09;;;;;;;24.03;16.77;;;;;;;1.62;89.81;99619.87;1819720;78;25741;-71
2020/12/09 09:28:36;;;;;;;24.87;16.03;;;;;;;1.64;90.00;99623.27;1819740;77;25713;-69
2020/12/09 09:31:03;;;;;;;25.63;16.40;;;;;;;1.66;89.87;99621.91;1819770;78;25307;-70
2020/12/09 09:33:31;;;;;;;23.33;15.20;;;;;;;1.65;89.75;99620.21;1819883;77;25271;-70
2020/12/09 09:35:58;;;;;;;23.40;14.53;;;;;;;1.63;89.57;99615.55;1819791;77;25175;-70
2020/12/09 09:38:25;;;;;;;24.37;16.43;;;;;;;1.56;89.33;99616.25;1788237;78;25187;-70
2020/12/09 09:40:52;;;;;;;24.77;16.30;;;;;;;1.66;89.69;99616.73;1819887;77;25251;-70
2020/12/09 09:43:18;;;;;;;26.80;16.83;;;;;;;1.70;89.74;99604.02;1819635;77;25326;-70
2020/12/09 09:45:45;;;;;;;27.83;19.33;;;;;;;1.76;89.68;99614.14;1819714;77;25160;-70
2020/12/09 09:48:12;;;;;;;28.13;18.40;;;;;;;1.75;89.30;99614.20;1819783;78;25195;-70
2020/12/09 09:50:41;;;;;;;20.63;14.80;;;;;;;1.88;89.62;99619.70;1773425;79;25614;-70
2020/12/09 09:53:08;;;;;;;22.60;16.60;;;;;;;1.89;88.80;99614.91;1787548;79;25297;-70
2020/12/09 09:55:36;;;;;;;28.83;18.97;;;;;;;1.85;88.95;99617.63;1787501;79;25277;-70
2020/12/09 09:58:03;;;;;;;47.17;29.70;;;;;;;1.84;88.83;99608.61;1752430;80;25277;-70
2020/12/09 10:00:30;;;;;;;46.40;28.53;;;;;;;1.80;88.87;99610.49;1787451;79;25324;-70
2020/12/09 10:02:57;;;;;;;45.13;26.50;;;;;;;1.77;88.60;99616.27;1787508;80;25262;-70
2020/12/09 10:05:26;;;;;;;136.43;64.17;;;;;;;1.77;88.66;99628.77;1787384;78;25689;-70
2020/12/09 10:07:53;;;;;;;53.93;30.03;;;;;;;1.75;88.53;99620.22;1787673;79;25131;-70
2020/12/09 10:10:20;;;;;;;105.33;41.63;;;;;;;1.70;88.47;99622.16;1787518;79;25288;-70
2020/12/09 10:12:47;;;;;;;61.27;29.63;;;;;;;1.64;88.43;99616.78;1779344;80;25261;-70
2020/12/09 10:15:14;;;;;;;115.97;51.23;;;;;;;1.61;88.56;99619.93;1756685;80;25205;-70
2020/12/09 10:17:40;;;;;;;51.27;25.67;;;;;;;1.62;88.66;99621.63;1756388;80;25329;-70
2020/12/09 10:20:07;;;;;;;44.27;23.93;;;;;;;1.65;88.62;99617.62;1785933;80;25194;-70
2020/12/09 10:22:34;;;;;;;48.57;27.97;;;;;;;1.60;88.41;99613.08;1752283;81;25660;-71
2020/12/09 10:25:01;;;;;;;34.57;21.70;;;;;;;1.53;88.58;99612.48;1752412;81;25331;-71
2020/12/09 10:27:28;;;;;;;40.63;23.77;;;;;;;1.53;88.66;99611.19;1722628;81;25284;-72
2020/12/09 10:29:56;;;;;;;44.57;26.30;;;;;;;1.47;88.65;99608.83;1722683;81;25284;-71
2020/12/09 10:32:26;;;;;;;33.47;21.77;;;;;;;1.49;88.64;99613.50;1723496;81;25287;-73
2020/12/09 10:34:54;;;;;;;30.90;20.67;;;;;;;1.45;88.61;99618.42;1724866;81;25276;-70
2020/12/09 10:37:25;;;;;;;21.13;14.47;;;;;;;1.43;88.62;99613.30;1758573;80;25731;-71
2020/12/09 10:39:57;;;;;;;23.03;15.93;;;;;;;1.43;88.45;99610.71;1758563;81;25300;-70
2020/12/09 10:42:34;;;;;;;22.10;15.00;;;;;;;1.43;88.40;99619.78;1758700;80;25331;-68
2020/12/09 10:45:21;;;;;;;22.07;14.23;;;;;;;1.44;88.18;99616.73;1758540;81;25224;-70
2020/12/09 10:47:47;;;;;;;20.40;14.83;;;;;;;1.47;88.11;99609.70;1758523;81;25205;-69
2020/12/09 10:50:14;;;;;;;19.43;12.60;;;;;;;1.46;88.26;99612.34;1758537;80;25362;-69
2020/12/09 10:52:41;;;;;;;20.73;13.53;;;;;;;1.45;88.10;99617.12;1758343;80;25370;-70
2020/12/09 10:55:08;;;;;;;24.20;16.23;;;;;;;1.45;88.26;99602.41;1758470;80;25208;-70
2020/12/09 10:57:35;;;;;;;21.20;14.23;;;;;;;1.46;88.28;99609.30;1758499;81;25287;-70
2020/12/09 11:00:05;;;;;;;23.57;16.03;;;;;;;1.40;87.85;99617.31;1739205;81;25710;-69
2020/12/09 11:02:31;;;;;;;23.30;16.40;;;;;;;1.42;88.10;99623.27;1758534;80;25151;-70
2020/12/09 11:04:58;;;;;;;21.80;15.43;;;;;;;1.43;88.11;99614.59;1758257;79;25738;-70
2020/12/09 11:07:25;;;;;;;24.90;16.77;;;;;;;1.40;87.72;99609.53;1758459;80;25208;-70
2020/12/09 11:09:52;;;;;;;20.17;13.47;;;;;;;1.42;87.90;99611.60;1758440;80;25627;-70
2020/12/09 11:12:20;;;;;;;20.57;13.90;;;;;;;1.40;87.56;99616.02;1758537;81;25198;-70
2020/12/09 11:14:49;;;;;;;23.60;15.90;;;;;;;1.38;87.44;99602.74;1758368;80;25260;-70
2020/12/09 11:17:16;;;;;;;22.57;15.77;;;;;;;1.36;87.53;99604.09;1758460;80;25565;-71
2020/12/09 11:19:46;;;;;;;18.90;13.67;;;;;;;1.36;87.57;99601.50;1758580;80;25200;-69
2020/12/09 11:22:13;;;;;;;20.60;14.80;;;;;;;1.35;87.51;99596.37;1758410;80;25738;-69
2020/12/09 11:24:41;;;;;;;22.20;15.27;;;;;;;1.35;87.55;99591.20;1758468;80;25276;-69
2020/12/09 11:27:07;;;;;;;17.90;12.40;;;;;;;1.46;87.32;99594.20;1758499;80;25216;-70
2020/12/09 11:29:34;;;;;;;19.53;13.40;;;;;;;1.42;87.20;99590.03;1758364;81;25326;-68
2020/12/09 11:32:01;;;;;;;18.30;12.50;;;;;;;1.44;87.26;99600.75;1758485;81;26415;-70
2020/12/09 11:34:28;;;;;;;18.90;14.10;;;;;;;1.37;86.78;99591.51;1758342;80;25295;-69
2020/12/09 11:37:02;;;;;;;23.40;15.33;;;;;;;1.38;87.03;99583.30;1758499;80;25235;-70
2020/12/09 11:39:29;;;;;;;23.70;15.37;;;;;;;1.35;87.17;99585.55;1758359;80;25220;-68